createdAt,value
2022-10-07T00:01:35.415Z,10.20
2022-10-07T00:05:00.583Z,10.20
2022-10-07T00:08:24.274Z,10.20
2022-10-07T00:11:48.172Z,10.20
2022-10-07T00:15:12.173Z,10.20
2022-10-07T00:18:36.462Z,10.20
2022-10-07T00:22:01.568Z,10.20
2022-10-07T00:25:25.932Z,10.20
2022-10-07T00:28:50.305Z,10.20
2022-10-07T00:32:15.185Z,10.10
2022-10-07T00:35:38.798Z,10.10
2022-10-07T00:39:06.440Z,10.10
2022-10-07T00:42:30.903Z,10.10
2022-10-07T00:45:58.970Z,10.20
2022-10-07T00:49:23.296Z,10.10
2022-10-07T00:52:49.814Z,10.10
2022-10-07T00:56:16.531Z,10.00
2022-10-07T00:59:41.499Z,10.00
2022-10-07T01:03:05.729Z,10.10
2022-10-07T01:06:30.282Z,10.00
2022-10-07T01:09:55.081Z,9.90
2022-10-07T01:13:32.828Z,9.90
2022-10-07T01:17:02.781Z,9.90
2022-10-07T01:20:32.785Z,9.90
2022-10-07T01:24:09.923Z,9.90
2022-10-07T01:27:38.309Z,9.90
2022-10-07T01:31:07.423Z,9.90
2022-10-07T01:34:32.457Z,9.90
2022-10-07T01:38:00.125Z,9.90
2022-10-07T01:41:24.281Z,9.90
2022-10-07T01:44:53.244Z,9.80
2022-10-07T01:48:16.989Z,9.80
2022-10-07T01:51:43.172Z,9.90
2022-10-07T01:55:28.616Z,9.90
2022-10-07T01:59:11.893Z,9.90
2022-10-07T02:02:57.483Z,9.90
2022-10-07T02:06:33.646Z,9.90
2022-10-07T02:10:07.997Z,9.90
2022-10-07T02:13:37.686Z,9.80
2022-10-07T02:17:07.584Z,9.80
2022-10-07T02:20:35.002Z,9.90
2022-10-07T02:24:01.602Z,9.90
2022-10-07T02:27:29.948Z,9.80
2022-10-07T02:30:58.326Z,9.80
2022-10-07T02:34:25.927Z,9.80
2022-10-07T02:37:54.833Z,9.70
2022-10-07T02:41:32.205Z,9.70
2022-10-07T02:45:12.477Z,9.70
2022-10-07T02:48:42.012Z,9.70
2022-10-07T02:52:08.311Z,9.70
2022-10-07T02:55:35.137Z,9.60
2022-10-07T02:58:59.581Z,9.60
2022-10-07T03:02:27.410Z,9.60
2022-10-07T03:05:51.222Z,9.60
2022-10-07T03:09:15.174Z,9.60
2022-10-07T03:12:40.521Z,9.60
2022-10-07T03:16:05.329Z,9.60
2022-10-07T03:19:29.275Z,9.60
2022-10-07T03:22:54.523Z,9.50
2022-10-07T03:26:19.157Z,9.50
2022-10-07T03:29:45.167Z,9.60
2022-10-07T03:33:08.778Z,9.60
2022-10-07T03:36:32.597Z,9.60
2022-10-07T03:39:56.459Z,9.60
2022-10-07T03:43:20.057Z,9.60
2022-10-07T03:46:45.335Z,9.70
2022-10-07T03:50:09.854Z,9.70
2022-10-07T03:53:34.387Z,9.70
2022-10-07T03:56:58.835Z,9.70
2022-10-07T04:00:25.255Z,9.70
2022-10-07T04:03:54.259Z,9.70
2022-10-07T04:07:17.865Z,9.60
2022-10-07T04:10:41.452Z,9.60
2022-10-07T04:14:05.122Z,9.60
2022-10-07T04:17:29.194Z,9.60
2022-10-07T04:20:55.019Z,9.60
2022-10-07T04:24:18.913Z,9.60
2022-10-07T04:27:51.687Z,9.60
2022-10-07T04:31:23.929Z,9.70
2022-10-07T04:35:02.153Z,9.70
2022-10-07T04:38:28.603Z,9.70
2022-10-07T04:41:54.955Z,9.80
2022-10-07T04:45:23.687Z,9.80
2022-10-07T04:48:47.535Z,9.80
2022-10-07T04:52:14.957Z,9.80
2022-10-07T04:55:43.593Z,9.80
2022-10-07T04:59:08.161Z,9.90
2022-10-07T05:02:33.726Z,9.90
2022-10-07T05:06:05.861Z,9.80
2022-10-07T05:09:31.168Z,9.80
2022-10-07T05:12:57.850Z,9.80
2022-10-07T05:16:21.568Z,9.80
2022-10-07T05:19:45.235Z,9.90
2022-10-07T05:23:08.865Z,10.00
2022-10-07T05:26:32.794Z,10.00
2022-10-07T05:30:00.047Z,10.00
2022-10-07T05:33:23.693Z,10.00
2022-10-07T05:36:47.977Z,10.10
2022-10-07T05:40:12.629Z,10.10
2022-10-07T05:43:40.387Z,10.10
2022-10-07T05:47:07.867Z,10.20
2022-10-07T05:50:31.512Z,10.20
2022-10-07T05:53:55.597Z,10.30
2022-10-07T05:57:22.742Z,10.30
2022-10-07T06:00:53.423Z,10.30
2022-10-07T06:04:19.756Z,10.40
2022-10-07T06:07:45.465Z,10.40
2022-10-07T06:11:30.232Z,10.30
2022-10-07T06:14:54.232Z,10.40
2022-10-07T06:18:17.885Z,10.50
2022-10-07T06:21:42.958Z,10.50
2022-10-07T06:25:08.039Z,10.60
2022-10-07T06:28:33.625Z,10.60
2022-10-07T06:31:57.672Z,10.70
2022-10-07T06:35:21.149Z,10.50
2022-10-07T06:38:49.685Z,10.50
2022-10-07T06:42:15.663Z,10.60
2022-10-07T06:45:59.995Z,10.60
2022-10-07T06:49:23.961Z,10.80
2022-10-07T06:52:55.165Z,11.00
2022-10-07T06:56:26.834Z,11.20
2022-10-07T06:59:51.677Z,12.20
2022-10-07T07:03:16.194Z,13.60
2022-10-07T07:06:40.629Z,15.20
2022-10-07T07:10:07.346Z,16.30
2022-10-07T07:13:36.367Z,17.60
2022-10-07T07:17:01.105Z,19.50
2022-10-07T07:20:25.116Z,21.20
2022-10-07T07:23:49.299Z,21.20
2022-10-07T07:27:15.353Z,21.60
2022-10-07T07:30:42.262Z,21.40
2022-10-07T07:34:11.249Z,22.20
2022-10-07T07:37:36.156Z,23.20
2022-10-07T07:41:05.823Z,23.40
2022-10-07T07:44:34.115Z,24.10
2022-10-07T07:48:01.868Z,25.20
2022-10-07T07:51:27.311Z,25.60
2022-10-07T07:54:51.859Z,27.10
2022-10-07T07:58:15.744Z,27.00
2022-10-07T08:01:39.671Z,27.10
2022-10-07T08:05:04.982Z,26.90
2022-10-07T08:08:30.188Z,26.20
2022-10-07T08:11:54.096Z,26.40
2022-10-07T08:15:18.301Z,26.40
2022-10-07T08:18:43.684Z,26.00
2022-10-07T08:22:09.555Z,26.80
2022-10-07T08:25:34.255Z,26.10
2022-10-07T08:29:02.188Z,25.70
2022-10-07T08:32:26.885Z,25.20
2022-10-07T08:35:51.713Z,25.80
2022-10-07T08:39:16.885Z,26.10
2022-10-07T08:42:43.610Z,27.00
2022-10-07T08:46:11.431Z,27.10
2022-10-07T08:49:45.422Z,27.00
2022-10-07T08:53:16.720Z,26.30
2022-10-07T08:56:43.352Z,25.80
2022-10-07T09:00:09.073Z,25.10
2022-10-07T09:03:42.433Z,25.10
2022-10-07T09:07:14.495Z,24.80
2022-10-07T09:10:40.583Z,25.40
2022-10-07T09:14:21.433Z,26.80
2022-10-07T09:17:53.864Z,27.80
2022-10-07T09:21:23.529Z,27.00
2022-10-07T09:24:49.071Z,26.80
2022-10-07T09:28:14.924Z,26.50
2022-10-07T09:31:40.893Z,27.00
2022-10-07T09:35:06.096Z,26.80
2022-10-07T09:38:35.882Z,26.00
2022-10-07T09:41:59.662Z,25.10
2022-10-07T09:45:27.750Z,25.60
2022-10-07T09:48:55.859Z,24.50
2022-10-07T09:52:23.433Z,24.20
2022-10-07T09:55:47.115Z,23.60
2022-10-07T09:59:21.886Z,23.80
2022-10-07T10:02:49.459Z,25.10
2022-10-07T10:06:15.112Z,24.80
2022-10-07T10:09:39.038Z,25.00
2022-10-07T10:13:05.870Z,25.80
2022-10-07T10:16:34.224Z,26.00
2022-10-07T10:20:26.353Z,26.10
2022-10-07T10:23:53.571Z,25.40
2022-10-07T10:27:21.567Z,25.30
2022-10-07T10:30:52.599Z,24.40
2022-10-07T10:34:29.680Z,23.60
2022-10-07T10:38:05.292Z,24.30
2022-10-07T10:41:37.179Z,24.30
2022-10-07T10:45:16.026Z,23.20
2022-10-07T10:48:46.734Z,21.80
2022-10-07T10:52:25.995Z,21.10
2022-10-07T10:56:26.232Z,20.80
2022-10-07T11:00:04.442Z,21.10
2022-10-07T11:03:43.555Z,20.50
2022-10-07T11:07:13.233Z,20.10
2022-10-07T11:10:43.233Z,19.90
2022-10-07T11:14:14.130Z,19.80
2022-10-07T11:17:39.887Z,19.50
2022-10-07T11:21:07.891Z,19.10
2022-10-07T11:24:37.323Z,19.00
2022-10-07T11:28:09.983Z,18.80
2022-10-07T11:31:38.142Z,18.70
2022-10-07T11:35:17.071Z,18.80
2022-10-07T11:38:42.407Z,18.90
2022-10-07T11:42:13.063Z,18.70
2022-10-07T11:45:52.639Z,18.70
2022-10-07T11:49:20.747Z,18.60
2022-10-07T11:52:48.588Z,18.50
2022-10-07T11:56:19.177Z,18.50
2022-10-07T11:59:46.279Z,18.20
2022-10-07T12:03:14.192Z,18.30
2022-10-07T12:06:37.801Z,18.30
2022-10-07T12:10:33.703Z,18.40
2022-10-07T12:14:35.654Z,18.40
2022-10-07T12:18:28.415Z,18.50
2022-10-07T12:22:17.738Z,18.20
2022-10-07T12:25:46.857Z,18.20
2022-10-07T12:29:24.881Z,18.20
2022-10-07T12:32:57.724Z,18.40
2022-10-07T12:36:29.251Z,18.40
2022-10-07T12:39:56.427Z,18.30
2022-10-07T12:43:34.883Z,18.30
2022-10-07T12:47:01.547Z,18.20
2022-10-07T12:50:26.737Z,18.20
2022-10-07T12:53:52.631Z,18.20
2022-10-07T12:57:23.218Z,18.20
2022-10-07T13:01:00.242Z,18.40
2022-10-07T13:04:40.052Z,18.70
2022-10-07T13:09:02.643Z,18.80
2022-10-07T13:12:38.457Z,18.80
2022-10-07T13:16:11.111Z,19.00
2022-10-07T13:19:40.867Z,19.10
2022-10-07T13:23:12.085Z,18.90
2022-10-07T13:26:35.730Z,18.70
2022-10-07T13:30:01.829Z,18.70
2022-10-07T13:33:31.212Z,18.70
2022-10-07T13:36:54.768Z,18.60
2022-10-07T13:40:23.412Z,18.50
2022-10-07T13:43:52.466Z,18.60
2022-10-07T13:47:20.522Z,18.40
2022-10-07T13:50:48.175Z,18.20
2022-10-07T13:54:20.541Z,18.10
2022-10-07T13:57:44.308Z,18.20
2022-10-07T14:01:08.280Z,18.10
2022-10-07T14:04:35.230Z,18.20
2022-10-07T14:08:01.450Z,18.10
2022-10-07T14:11:25.103Z,18.10
2022-10-07T14:14:51.535Z,18.10
2022-10-07T14:18:17.555Z,18.10
2022-10-07T14:21:42.042Z,18.10
2022-10-07T14:25:18.006Z,18.10
2022-10-07T14:28:43.581Z,18.20
2022-10-07T14:32:30.770Z,18.30
2022-10-07T14:36:14.565Z,18.10
2022-10-07T14:39:39.842Z,18.00
2022-10-07T14:43:05.497Z,18.10
2022-10-07T14:46:30.186Z,18.00
2022-10-07T14:49:55.339Z,17.90
2022-10-07T14:53:18.898Z,17.90
2022-10-07T14:56:42.522Z,17.90
2022-10-07T15:00:14.430Z,17.90
2022-10-07T15:03:38.163Z,17.90
2022-10-07T15:07:02.336Z,17.90
2022-10-07T15:10:26.672Z,17.60
2022-10-07T15:13:50.996Z,17.60
2022-10-07T15:17:16.079Z,17.60
2022-10-07T15:20:40.647Z,17.60
2022-10-07T15:24:04.357Z,17.50
2022-10-07T15:27:27.904Z,17.40
2022-10-07T15:30:52.093Z,17.40
2022-10-07T15:34:17.330Z,17.30
2022-10-07T15:37:45.666Z,17.30
2022-10-07T15:41:09.257Z,17.30
2022-10-07T15:44:32.861Z,17.20
2022-10-07T15:48:00.349Z,17.20
2022-10-07T15:51:26.159Z,17.10
2022-10-07T15:54:49.784Z,17.00
2022-10-07T15:58:13.299Z,17.00
2022-10-07T16:01:37.352Z,16.80
2022-10-07T16:05:00.997Z,16.80
2022-10-07T16:08:26.321Z,16.80
2022-10-07T16:11:50.526Z,16.80
2022-10-07T16:15:14.072Z,16.70
2022-10-07T16:18:39.426Z,16.60
2022-10-07T16:22:02.979Z,16.60
2022-10-07T16:25:27.879Z,16.50
2022-10-07T16:29:25.793Z,16.40
2022-10-07T16:32:49.458Z,16.30
2022-10-07T16:36:14.137Z,16.10
2022-10-07T16:39:37.785Z,16.10
2022-10-07T16:43:02.934Z,16.00
2022-10-07T16:46:27.238Z,15.90
2022-10-07T16:49:50.897Z,15.90
2022-10-07T16:53:14.689Z,15.70
2022-10-07T16:56:38.256Z,15.70
2022-10-07T17:00:03.572Z,15.70
2022-10-07T17:03:27.960Z,15.60
2022-10-07T17:06:51.789Z,15.50
2022-10-07T17:10:15.568Z,15.40
2022-10-07T17:13:39.384Z,15.30
2022-10-07T17:17:05.078Z,15.20
2022-10-07T17:20:29.050Z,15.20
2022-10-07T17:23:52.742Z,15.10
2022-10-07T17:27:16.742Z,15.10
2022-10-07T17:30:40.676Z,15.10
2022-10-07T17:34:05.897Z,15.00
2022-10-07T17:37:29.446Z,15.00
2022-10-07T17:40:52.989Z,14.90
2022-10-07T17:44:17.014Z,14.90
2022-10-07T17:47:40.522Z,14.90
2022-10-07T17:51:06.177Z,14.90
2022-10-07T17:54:29.761Z,14.80
2022-10-07T17:57:53.370Z,14.80
2022-10-07T18:01:20.781Z,14.70
2022-10-07T18:04:45.274Z,14.70
2022-10-07T18:08:10.181Z,14.60
2022-10-07T18:11:51.947Z,14.50
2022-10-07T18:15:21.061Z,14.50
2022-10-07T18:18:44.754Z,14.40
2022-10-07T18:22:08.754Z,14.30
2022-10-07T18:25:35.303Z,14.20
2022-10-07T18:28:59.682Z,14.10
2022-10-07T18:32:24.222Z,14.00
2022-10-07T18:35:47.873Z,13.90
2022-10-07T18:39:13.102Z,13.90
2022-10-07T18:42:39.310Z,13.90
2022-10-07T18:46:05.433Z,13.80
2022-10-07T18:49:29.095Z,13.80
2022-10-07T18:52:52.632Z,13.90
2022-10-07T18:56:18.017Z,13.90
2022-10-07T18:59:42.921Z,13.90
2022-10-07T19:03:06.578Z,13.90
2022-10-07T19:06:31.997Z,13.80
2022-10-07T19:09:55.571Z,13.80
2022-10-07T19:13:36.827Z,13.80
2022-10-07T19:17:01.794Z,13.80
2022-10-07T19:20:26.492Z,13.70
2022-10-07T19:23:52.540Z,13.70
2022-10-07T19:27:16.133Z,13.70
2022-10-07T19:30:42.017Z,13.70
2022-10-07T19:34:08.909Z,13.70
2022-10-07T19:37:32.542Z,13.70
2022-10-07T19:40:56.354Z,13.60
2022-10-07T19:44:20.025Z,13.60
2022-10-07T19:47:43.863Z,13.60
2022-10-07T19:51:12.065Z,13.50
2022-10-07T19:54:39.626Z,13.50
2022-10-07T19:58:04.077Z,13.40
2022-10-07T20:01:29.706Z,13.40
2022-10-07T20:04:53.901Z,13.30
2022-10-07T20:08:18.809Z,13.20
2022-10-07T20:11:43.034Z,13.10
2022-10-07T20:15:07.064Z,13.00
2022-10-07T20:18:30.655Z,12.90
2022-10-07T20:21:54.278Z,12.80
2022-10-07T20:25:19.190Z,12.80
2022-10-07T20:28:42.863Z,12.80
2022-10-07T20:32:06.485Z,12.80
2022-10-07T20:35:33.811Z,12.80
2022-10-07T20:39:17.011Z,12.80
2022-10-07T20:42:47.089Z,12.80
2022-10-07T20:46:10.959Z,12.90
2022-10-07T20:49:35.245Z,13.00
2022-10-07T20:52:58.810Z,13.00
2022-10-07T20:56:22.413Z,13.20
2022-10-07T20:59:47.389Z,13.20
2022-10-07T21:03:11.246Z,13.20
2022-10-07T21:06:35.198Z,13.10
2022-10-07T21:09:59.080Z,13.10
2022-10-07T21:13:22.627Z,13.00
2022-10-07T21:16:48.864Z,12.90
2022-10-07T21:20:12.461Z,12.90
2022-10-07T21:23:36.067Z,12.80
2022-10-07T21:26:59.619Z,12.80
2022-10-07T21:30:23.156Z,12.80
2022-10-07T21:34:48.497Z,12.80
2022-10-07T21:38:39.608Z,12.70
2022-10-07T21:42:03.161Z,12.70
2022-10-07T21:45:28.144Z,12.60
2022-10-07T21:48:52.975Z,12.50
2022-10-07T21:52:16.861Z,12.40
2022-10-07T21:55:41.753Z,12.30
2022-10-07T21:59:05.713Z,12.30
2022-10-07T22:02:29.284Z,12.20
2022-10-07T22:05:52.958Z,12.20
2022-10-07T22:09:18.301Z,12.10
2022-10-07T22:12:44.921Z,12.10
2022-10-07T22:16:14.418Z,12.10
2022-10-07T22:19:38.036Z,12.00
2022-10-07T22:23:01.609Z,12.00
2022-10-07T22:26:27.158Z,11.90
2022-10-07T22:29:52.066Z,11.90
2022-10-07T22:33:15.623Z,11.90
2022-10-07T22:36:39.477Z,11.90
2022-10-07T22:40:02.999Z,11.80
2022-10-07T22:43:26.538Z,11.80
2022-10-07T22:46:51.489Z,11.90
2022-10-07T22:50:16.009Z,11.90
2022-10-07T22:53:41.227Z,11.90
2022-10-07T22:57:07.210Z,11.80
2022-10-07T23:00:30.764Z,11.80
2022-10-07T23:03:55.787Z,11.70
2022-10-07T23:07:19.435Z,11.70
2022-10-07T23:10:42.953Z,11.60
2022-10-07T23:14:06.615Z,11.60
2022-10-07T23:17:30.272Z,11.60
2022-10-07T23:21:03.149Z,11.60
2022-10-07T23:24:28.215Z,11.60
2022-10-07T23:27:51.725Z,11.50
2022-10-07T23:31:17.098Z,11.50
2022-10-07T23:34:40.729Z,11.40
2022-10-07T23:38:05.585Z,11.40
2022-10-07T23:41:31.126Z,11.40
2022-10-07T23:44:55.842Z,11.40
2022-10-07T23:48:19.785Z,11.30
2022-10-07T23:51:43.359Z,11.30
2022-10-07T23:55:10.255Z,11.20
2022-10-07T23:58:35.514Z,11.20
